sensor_id;sensor_type;location;lat;lon;timestamp;P1;durP1;ratioP1;P2;durP2;ratioP2
25231;SDS011;13176;51.140;6.290;2022-10-16T00:02:16;32.80;;;31.02;;
25231;SDS011;13176;51.140;6.290;2022-10-16T00:04:42;32.38;;;30.67;;
25231;SDS011;13176;51.140;6.290;2022-10-16T00:07:09;30.33;;;28.50;;
25231;SDS011;13176;51.140;6.290;2022-10-16T00:09:35;31.13;;;29.52;;
25231;SDS011;13176;51.140;6.290;2022-10-16T00:12:01;31.85;;;30.10;;
25231;SDS011;13176;51.140;6.290;2022-10-16T00:14:29;33.40;;;31.50;;
25231;SDS011;13176;51.140;6.290;2022-10-16T00:16:56;31.35;;;29.45;;
25231;SDS011;13176;51.140;6.290;2022-10-16T00:19:22;32.28;;;30.58;;
25231;SDS011;13176;51.140;6.290;2022-10-16T00:21:48;32.50;;;30.70;;
25231;SDS011;13176;51.140;6.290;2022-10-16T00:24:15;32.58;;;30.88;;
25231;SDS011;13176;51.140;6.290;2022-10-16T00:26:41;33.08;;;31.17;;
25231;SDS011;13176;51.140;6.290;2022-10-16T00:29:08;34.38;;;32.17;;
25231;SDS011;13176;51.140;6.290;2022-10-16T00:31:34;33.78;;;31.77;;
25231;SDS011;13176;51.140;6.290;2022-10-16T00:34:01;30.60;;;29.00;;
25231;SDS011;13176;51.140;6.290;2022-10-16T00:36:28;33.42;;;31.52;;
25231;SDS011;13176;51.140;6.290;2022-10-16T00:38:55;32.28;;;30.23;;
25231;SDS011;13176;51.140;6.290;2022-10-16T00:41:26;31.55;;;29.83;;
25231;SDS011;13176;51.140;6.290;2022-10-16T00:43:54;30.88;;;29.20;;
25231;SDS011;13176;51.140;6.290;2022-10-16T00:51:28;31.73;;;30.02;;
25231;SDS011;13176;51.140;6.290;2022-10-16T00:53:58;31.70;;;30.00;;
25231;SDS011;13176;51.140;6.290;2022-10-16T00:56:26;31.17;;;29.58;;
25231;SDS011;13176;51.140;6.290;2022-10-16T00:58:52;32.40;;;30.70;;
25231;SDS011;13176;51.140;6.290;2022-10-16T01:01:18;31.58;;;29.95;;
25231;SDS011;13176;51.140;6.290;2022-10-16T01:03:45;32.40;;;30.42;;
25231;SDS011;13176;51.140;6.290;2022-10-16T01:06:17;31.23;;;29.40;;
25231;SDS011;13176;51.140;6.290;2022-10-16T01:11:27;31.63;;;30.02;;
25231;SDS011;13176;51.140;6.290;2022-10-16T01:14:15;32.88;;;30.63;;
25231;SDS011;13176;51.140;6.290;2022-10-16T01:16:55;34.38;;;32.60;;
25231;SDS011;13176;51.140;6.290;2022-10-16T01:22:11;32.33;;;30.63;;
25231;SDS011;13176;51.140;6.290;2022-10-16T01:24:40;33.70;;;31.70;;
25231;SDS011;13176;51.140;6.290;2022-10-16T01:27:24;32.05;;;30.17;;
25231;SDS011;13176;51.140;6.290;2022-10-16T01:35:09;33.83;;;31.92;;
25231;SDS011;13176;51.140;6.290;2022-10-16T01:38:05;34.05;;;32.30;;
25231;SDS011;13176;51.140;6.290;2022-10-16T01:40:42;32.45;;;30.85;;
25231;SDS011;13176;51.140;6.290;2022-10-16T01:43:12;32.63;;;30.90;;
25231;SDS011;13176;51.140;6.290;2022-10-16T01:45:43;33.00;;;31.05;;
25231;SDS011;13176;51.140;6.290;2022-10-16T01:48:12;34.92;;;33.13;;
25231;SDS011;13176;51.140;6.290;2022-10-16T01:50:43;32.33;;;30.65;;
25231;SDS011;13176;51.140;6.290;2022-10-16T01:53:14;30.38;;;28.85;;
25231;SDS011;13176;51.140;6.290;2022-10-16T01:55:43;31.08;;;29.40;;
25231;SDS011;13176;51.140;6.290;2022-10-16T01:58:13;30.65;;;28.92;;
25231;SDS011;13176;51.140;6.290;2022-10-16T02:00:41;33.60;;;31.70;;
25231;SDS011;13176;51.140;6.290;2022-10-16T02:03:11;32.53;;;30.63;;
25231;SDS011;13176;51.140;6.290;2022-10-16T02:05:41;31.00;;;29.30;;
25231;SDS011;13176;51.140;6.290;2022-10-16T02:08:12;30.45;;;28.85;;
25231;SDS011;13176;51.140;6.290;2022-10-16T02:10:40;31.10;;;29.50;;
25231;SDS011;13176;51.140;6.290;2022-10-16T02:13:09;32.10;;;30.40;;
25231;SDS011;13176;51.140;6.290;2022-10-16T02:15:39;32.20;;;30.50;;
25231;SDS011;13176;51.140;6.290;2022-10-16T02:18:05;33.35;;;31.33;;
25231;SDS011;13176;51.140;6.290;2022-10-16T02:20:36;34.80;;;32.70;;
25231;SDS011;13176;51.140;6.290;2022-10-16T02:23:16;32.75;;;30.90;;
25231;SDS011;13176;51.140;6.290;2022-10-16T02:25:50;31.90;;;30.27;;
25231;SDS011;13176;51.140;6.290;2022-10-16T02:28:26;32.95;;;31.25;;
25231;SDS011;13176;51.140;6.290;2022-10-16T02:31:00;31.80;;;30.20;;
25231;SDS011;13176;51.140;6.290;2022-10-16T02:33:29;33.00;;;31.30;;
25231;SDS011;13176;51.140;6.290;2022-10-16T02:35:57;31.60;;;29.90;;
25231;SDS011;13176;51.140;6.290;2022-10-16T02:38:24;32.58;;;30.83;;
25231;SDS011;13176;51.140;6.290;2022-10-16T02:40:52;32.92;;;31.20;;
25231;SDS011;13176;51.140;6.290;2022-10-16T02:43:18;32.90;;;31.25;;
25231;SDS011;13176;51.140;6.290;2022-10-16T02:45:45;31.70;;;29.90;;
25231;SDS011;13176;51.140;6.290;2022-10-16T02:48:11;32.20;;;30.60;;
25231;SDS011;13176;51.140;6.290;2022-10-16T02:50:38;34.53;;;32.75;;
25231;SDS011;13176;51.140;6.290;2022-10-16T02:53:04;32.17;;;30.55;;
25231;SDS011;13176;51.140;6.290;2022-10-16T02:55:30;33.72;;;31.92;;
25231;SDS011;13176;51.140;6.290;2022-10-16T02:57:57;34.83;;;33.03;;
25231;SDS011;13176;51.140;6.290;2022-10-16T03:00:23;32.95;;;31.25;;
25231;SDS011;13176;51.140;6.290;2022-10-16T03:02:50;32.72;;;31.00;;
25231;SDS011;13176;51.140;6.290;2022-10-16T03:05:16;33.05;;;31.35;;
25231;SDS011;13176;51.140;6.290;2022-10-16T03:07:43;31.73;;;30.02;;
25231;SDS011;13176;51.140;6.290;2022-10-16T03:10:09;33.63;;;31.70;;
25231;SDS011;13176;51.140;6.290;2022-10-16T03:12:36;32.25;;;30.65;;
25231;SDS011;13176;51.140;6.290;2022-10-16T03:15:02;34.15;;;32.42;;
25231;SDS011;13176;51.140;6.290;2022-10-16T03:17:29;32.03;;;30.42;;
25231;SDS011;13176;51.140;6.290;2022-10-16T03:19:57;34.90;;;33.03;;
25231;SDS011;13176;51.140;6.290;2022-10-16T03:22:24;34.58;;;32.70;;
25231;SDS011;13176;51.140;6.290;2022-10-16T03:24:50;32.22;;;30.52;;
25231;SDS011;13176;51.140;6.290;2022-10-16T03:27:16;34.13;;;32.33;;
25231;SDS011;13176;51.140;6.290;2022-10-16T03:29:43;35.03;;;33.22;;
25231;SDS011;13176;51.140;6.290;2022-10-16T03:32:09;34.53;;;32.65;;
25231;SDS011;13176;51.140;6.290;2022-10-16T03:34:35;34.65;;;32.90;;
25231;SDS011;13176;51.140;6.290;2022-10-16T03:37:02;36.58;;;34.47;;
25231;SDS011;13176;51.140;6.290;2022-10-16T03:39:28;35.60;;;33.63;;
25231;SDS011;13176;51.140;6.290;2022-10-16T03:41:54;34.22;;;32.28;;
25231;SDS011;13176;51.140;6.290;2022-10-16T03:44:21;34.50;;;32.70;;
25231;SDS011;13176;51.140;6.290;2022-10-16T03:46:47;34.15;;;32.33;;
25231;SDS011;13176;51.140;6.290;2022-10-16T03:49:14;34.28;;;32.47;;
25231;SDS011;13176;51.140;6.290;2022-10-16T03:51:40;34.38;;;32.58;;
25231;SDS011;13176;51.140;6.290;2022-10-16T03:54:06;36.47;;;34.33;;
25231;SDS011;13176;51.140;6.290;2022-10-16T03:56:33;32.90;;;31.20;;
25231;SDS011;13176;51.140;6.290;2022-10-16T03:58:59;33.38;;;31.70;;
25231;SDS011;13176;51.140;6.290;2022-10-16T04:01:26;32.65;;;30.92;;
25231;SDS011;13176;51.140;6.290;2022-10-16T04:03:52;32.97;;;31.27;;
25231;SDS011;13176;51.140;6.290;2022-10-16T04:06:18;31.98;;;30.27;;
25231;SDS011;13176;51.140;6.290;2022-10-16T04:08:45;32.42;;;30.60;;
25231;SDS011;13176;51.140;6.290;2022-10-16T04:11:11;33.05;;;31.25;;
25231;SDS011;13176;51.140;6.290;2022-10-16T04:13:38;31.75;;;30.10;;
25231;SDS011;13176;51.140;6.290;2022-10-16T04:16:04;32.28;;;30.67;;
25231;SDS011;13176;51.140;6.290;2022-10-16T04:18:30;33.47;;;31.77;;
25231;SDS011;13176;51.140;6.290;2022-10-16T04:21:01;31.95;;;29.92;;
25231;SDS011;13176;51.140;6.290;2022-10-16T04:23:29;33.47;;;31.70;;
25231;SDS011;13176;51.140;6.290;2022-10-16T04:25:55;31.30;;;29.73;;
25231;SDS011;13176;51.140;6.290;2022-10-16T04:28:21;33.65;;;31.95;;
25231;SDS011;13176;51.140;6.290;2022-10-16T04:30:48;31.85;;;30.25;;
25231;SDS011;13176;51.140;6.290;2022-10-16T04:33:14;29.67;;;28.05;;
25231;SDS011;13176;51.140;6.290;2022-10-16T04:35:41;31.65;;;30.00;;
25231;SDS011;13176;51.140;6.290;2022-10-16T04:38:07;33.13;;;31.45;;
25231;SDS011;13176;51.140;6.290;2022-10-16T04:40:34;33.50;;;31.60;;
25231;SDS011;13176;51.140;6.290;2022-10-16T04:43:03;33.05;;;31.35;;
25231;SDS011;13176;51.140;6.290;2022-10-16T04:45:30;31.40;;;29.80;;
25231;SDS011;13176;51.140;6.290;2022-10-16T04:47:57;33.40;;;31.65;;
25231;SDS011;13176;51.140;6.290;2022-10-16T04:50:24;30.10;;;28.50;;
25231;SDS011;13176;51.140;6.290;2022-10-16T04:52:50;33.88;;;31.90;;
25231;SDS011;13176;51.140;6.290;2022-10-16T04:55:17;28.63;;;27.20;;
25231;SDS011;13176;51.140;6.290;2022-10-16T04:57:43;32.58;;;30.67;;
25231;SDS011;13176;51.140;6.290;2022-10-16T05:00:09;32.85;;;31.13;;
25231;SDS011;13176;51.140;6.290;2022-10-16T05:02:36;30.25;;;28.75;;
25231;SDS011;13176;51.140;6.290;2022-10-16T05:05:03;31.70;;;30.00;;
25231;SDS011;13176;51.140;6.290;2022-10-16T05:07:29;30.83;;;29.25;;
25231;SDS011;13176;51.140;6.290;2022-10-16T05:09:55;29.52;;;28.00;;
25231;SDS011;13176;51.140;6.290;2022-10-16T05:12:22;28.80;;;27.20;;
25231;SDS011;13176;51.140;6.290;2022-10-16T05:14:48;30.67;;;29.13;;
25231;SDS011;13176;51.140;6.290;2022-10-16T05:17:15;30.55;;;28.95;;
25231;SDS011;13176;51.140;6.290;2022-10-16T05:19:41;29.27;;;27.77;;
25231;SDS011;13176;51.140;6.290;2022-10-16T05:22:07;29.27;;;27.75;;
25231;SDS011;13176;51.140;6.290;2022-10-16T05:24:34;29.48;;;27.88;;
25231;SDS011;13176;51.140;6.290;2022-10-16T05:27:00;30.70;;;29.10;;
25231;SDS011;13176;51.140;6.290;2022-10-16T05:29:27;29.27;;;27.42;;
25231;SDS011;13176;51.140;6.290;2022-10-16T05:31:53;30.60;;;28.95;;
25231;SDS011;13176;51.140;6.290;2022-10-16T05:34:20;30.30;;;28.65;;
25231;SDS011;13176;51.140;6.290;2022-10-16T05:36:46;30.05;;;28.27;;
25231;SDS011;13176;51.140;6.290;2022-10-16T05:39:14;30.17;;;28.67;;
25231;SDS011;13176;51.140;6.290;2022-10-16T05:41:41;29.90;;;28.10;;
25231;SDS011;13176;51.140;6.290;2022-10-16T05:44:08;29.63;;;28.02;;
25231;SDS011;13176;51.140;6.290;2022-10-16T05:46:35;30.88;;;29.15;;
25231;SDS011;13176;51.140;6.290;2022-10-16T05:49:01;29.33;;;27.83;;
25231;SDS011;13176;51.140;6.290;2022-10-16T05:51:28;29.15;;;27.65;;
25231;SDS011;13176;51.140;6.290;2022-10-16T05:53:54;28.63;;;27.02;;
25231;SDS011;13176;51.140;6.290;2022-10-16T05:56:20;30.15;;;28.35;;
25231;SDS011;13176;51.140;6.290;2022-10-16T05:58:47;27.33;;;25.83;;
25231;SDS011;13176;51.140;6.290;2022-10-16T06:01:14;28.00;;;26.50;;
25231;SDS011;13176;51.140;6.290;2022-10-16T06:03:42;28.70;;;27.20;;
25231;SDS011;13176;51.140;6.290;2022-10-16T06:08:39;28.98;;;27.48;;
25231;SDS011;13176;51.140;6.290;2022-10-16T06:11:08;26.77;;;25.38;;
25231;SDS011;13176;51.140;6.290;2022-10-16T06:13:37;28.75;;;27.25;;
25231;SDS011;13176;51.140;6.290;2022-10-16T06:16:05;29.98;;;28.27;;
25231;SDS011;13176;51.140;6.290;2022-10-16T06:18:31;27.48;;;26.08;;
25231;SDS011;13176;51.140;6.290;2022-10-16T06:20:58;27.95;;;26.45;;
25231;SDS011;13176;51.140;6.290;2022-10-16T06:23:25;27.77;;;26.38;;
25231;SDS011;13176;51.140;6.290;2022-10-16T06:25:52;28.27;;;26.85;;
25231;SDS011;13176;51.140;6.290;2022-10-16T06:28:18;27.55;;;26.15;;
25231;SDS011;13176;51.140;6.290;2022-10-16T06:30:44;30.60;;;28.63;;
25231;SDS011;13176;51.140;6.290;2022-10-16T06:33:11;29.27;;;27.77;;
25231;SDS011;13176;51.140;6.290;2022-10-16T06:35:38;30.80;;;29.00;;
25231;SDS011;13176;51.140;6.290;2022-10-16T06:38:04;30.58;;;28.83;;
25231;SDS011;13176;51.140;6.290;2022-10-16T06:40:31;28.35;;;26.65;;
25231;SDS011;13176;51.140;6.290;2022-10-16T06:42:57;29.92;;;28.33;;
25231;SDS011;13176;51.140;6.290;2022-10-16T06:45:24;29.20;;;27.58;;
25231;SDS011;13176;51.140;6.290;2022-10-16T06:47:50;30.65;;;29.05;;
25231;SDS011;13176;51.140;6.290;2022-10-16T06:50:16;30.30;;;28.65;;
25231;SDS011;13176;51.140;6.290;2022-10-16T06:52:43;30.45;;;28.83;;
25231;SDS011;13176;51.140;6.290;2022-10-16T06:55:09;28.98;;;26.98;;
25231;SDS011;13176;51.140;6.290;2022-10-16T06:57:35;28.52;;;26.80;;
25231;SDS011;13176;51.140;6.290;2022-10-16T07:00:02;27.98;;;26.25;;
25231;SDS011;13176;51.140;6.290;2022-10-16T07:02:29;28.17;;;26.45;;
25231;SDS011;13176;51.140;6.290;2022-10-16T07:04:55;29.00;;;27.40;;
25231;SDS011;13176;51.140;6.290;2022-10-16T07:07:23;29.60;;;27.90;;
25231;SDS011;13176;51.140;6.290;2022-10-16T07:09:50;30.42;;;28.73;;
25231;SDS011;13176;51.140;6.290;2022-10-16T07:12:17;28.63;;;27.23;;
25231;SDS011;13176;51.140;6.290;2022-10-16T07:14:43;28.95;;;27.20;;
25231;SDS011;13176;51.140;6.290;2022-10-16T07:17:10;26.65;;;24.95;;
25231;SDS011;13176;51.140;6.290;2022-10-16T07:19:36;28.10;;;26.60;;
25231;SDS011;13176;51.140;6.290;2022-10-16T07:22:03;28.65;;;27.08;;
25231;SDS011;13176;51.140;6.290;2022-10-16T07:24:29;28.70;;;27.23;;
25231;SDS011;13176;51.140;6.290;2022-10-16T07:26:55;27.33;;;25.88;;
25231;SDS011;13176;51.140;6.290;2022-10-16T07:29:22;29.75;;;28.05;;
25231;SDS011;13176;51.140;6.290;2022-10-16T07:31:49;28.92;;;27.45;;
25231;SDS011;13176;51.140;6.290;2022-10-16T07:34:16;31.45;;;29.50;;
25231;SDS011;13176;51.140;6.290;2022-10-16T07:36:47;29.75;;;28.25;;
25231;SDS011;13176;51.140;6.290;2022-10-16T07:39:14;31.27;;;29.55;;
25231;SDS011;13176;51.140;6.290;2022-10-16T07:41:40;28.60;;;27.15;;
25231;SDS011;13176;51.140;6.290;2022-10-16T07:44:07;30.13;;;28.63;;
25231;SDS011;13176;51.140;6.290;2022-10-16T07:46:34;31.65;;;29.98;;
25231;SDS011;13176;51.140;6.290;2022-10-16T07:49:02;32.00;;;30.13;;
25231;SDS011;13176;51.140;6.290;2022-10-16T07:51:29;28.98;;;27.50;;
25231;SDS011;13176;51.140;6.290;2022-10-16T07:53:56;29.20;;;27.60;;
25231;SDS011;13176;51.140;6.290;2022-10-16T07:56:22;32.72;;;31.02;;
25231;SDS011;13176;51.140;6.290;2022-10-16T07:58:49;29.27;;;27.65;;
25231;SDS011;13176;51.140;6.290;2022-10-16T08:01:16;30.50;;;28.77;;
25231;SDS011;13176;51.140;6.290;2022-10-16T08:03:44;31.02;;;29.33;;
25231;SDS011;13176;51.140;6.290;2022-10-16T08:06:12;31.33;;;29.52;;
25231;SDS011;13176;51.140;6.290;2022-10-16T08:08:38;31.88;;;29.88;;
25231;SDS011;13176;51.140;6.290;2022-10-16T08:11:05;30.77;;;29.05;;
25231;SDS011;13176;51.140;6.290;2022-10-16T08:13:31;31.63;;;30.02;;
25231;SDS011;13176;51.140;6.290;2022-10-16T08:15:58;30.05;;;28.45;;
25231;SDS011;13176;51.140;6.290;2022-10-16T08:18:24;30.13;;;28.58;;
25231;SDS011;13176;51.140;6.290;2022-10-16T08:20:55;34.38;;;32.45;;
25231;SDS011;13176;51.140;6.290;2022-10-16T08:23:23;34.90;;;33.10;;
25231;SDS011;13176;51.140;6.290;2022-10-16T08:25:55;34.78;;;32.72;;
25231;SDS011;13176;51.140;6.290;2022-10-16T08:28:35;32.20;;;30.50;;
25231;SDS011;13176;51.140;6.290;2022-10-16T08:31:12;32.65;;;30.95;;
25231;SDS011;13176;51.140;6.290;2022-10-16T08:33:40;33.80;;;32.03;;
25231;SDS011;13176;51.140;6.290;2022-10-16T08:36:09;33.40;;;31.38;;
25231;SDS011;13176;51.140;6.290;2022-10-16T08:38:36;33.53;;;31.70;;
25231;SDS011;13176;51.140;6.290;2022-10-16T08:44:07;35.03;;;33.22;;
25231;SDS011;13176;51.140;6.290;2022-10-16T08:46:39;34.53;;;32.60;;
25231;SDS011;13176;51.140;6.290;2022-10-16T08:49:16;34.28;;;32.25;;
25231;SDS011;13176;51.140;6.290;2022-10-16T08:51:43;29.50;;;27.90;;
25231;SDS011;13176;51.140;6.290;2022-10-16T08:56:48;30.48;;;28.70;;
25231;SDS011;13176;51.140;6.290;2022-10-16T08:59:15;30.33;;;28.63;;
25231;SDS011;13176;51.140;6.290;2022-10-16T09:01:46;28.70;;;27.10;;
25231;SDS011;13176;51.140;6.290;2022-10-16T09:04:38;24.55;;;23.25;;
25231;SDS011;13176;51.140;6.290;2022-10-16T09:07:14;24.23;;;22.90;;
25231;SDS011;13176;51.140;6.290;2022-10-16T09:09:53;21.08;;;19.88;;
25231;SDS011;13176;51.140;6.290;2022-10-16T09:12:32;17.35;;;16.30;;
25231;SDS011;13176;51.140;6.290;2022-10-16T09:17:46;15.82;;;14.98;;
25231;SDS011;13176;51.140;6.290;2022-10-16T09:25:30;19.25;;;18.15;;
25231;SDS011;13176;51.140;6.290;2022-10-16T09:27:58;16.42;;;15.43;;
25231;SDS011;13176;51.140;6.290;2022-10-16T09:30:26;21.08;;;19.65;;
25231;SDS011;13176;51.140;6.290;2022-10-16T09:32:55;19.75;;;18.65;;
25231;SDS011;13176;51.140;6.290;2022-10-16T09:35:31;17.92;;;17.00;;
25231;SDS011;13176;51.140;6.290;2022-10-16T09:38:02;24.27;;;22.67;;
25231;SDS011;13176;51.140;6.290;2022-10-16T09:40:33;24.10;;;22.60;;
25231;SDS011;13176;51.140;6.290;2022-10-16T09:45:58;24.98;;;23.67;;
25231;SDS011;13176;51.140;6.290;2022-10-16T09:48:50;22.02;;;20.73;;
25231;SDS011;13176;51.140;6.290;2022-10-16T09:54:00;21.88;;;20.63;;
25231;SDS011;13176;51.140;6.290;2022-10-16T09:56:31;25.38;;;23.92;;
25231;SDS011;13176;51.140;6.290;2022-10-16T09:59:11;30.77;;;28.83;;
25231;SDS011;13176;51.140;6.290;2022-10-16T10:01:40;24.63;;;23.23;;
25231;SDS011;13176;51.140;6.290;2022-10-16T10:04:07;22.70;;;21.40;;
25231;SDS011;13176;51.140;6.290;2022-10-16T10:06:34;26.48;;;25.00;;
25231;SDS011;13176;51.140;6.290;2022-10-16T10:09:20;28.40;;;26.77;;
25231;SDS011;13176;51.140;6.290;2022-10-16T10:11:56;28.15;;;26.38;;
25231;SDS011;13176;51.140;6.290;2022-10-16T10:17:11;21.15;;;19.88;;
25231;SDS011;13176;51.140;6.290;2022-10-16T10:19:40;10.43;;;9.73;;
25231;SDS011;13176;51.140;6.290;2022-10-16T10:22:22;12.05;;;11.15;;
25231;SDS011;13176;51.140;6.290;2022-10-16T10:30:52;10.80;;;10.10;;
25231;SDS011;13176;51.140;6.290;2022-10-16T10:33:57;10.88;;;10.18;;
25231;SDS011;13176;51.140;6.290;2022-10-16T10:36:47;10.15;;;9.30;;
25231;SDS011;13176;51.140;6.290;2022-10-16T10:39:27;10.52;;;9.60;;
25231;SDS011;13176;51.140;6.290;2022-10-16T10:45:00;11.57;;;10.88;;
25231;SDS011;13176;51.140;6.290;2022-10-16T10:50:45;6.88;;;6.32;;
25231;SDS011;13176;51.140;6.290;2022-10-16T10:53:38;8.25;;;7.70;;
25231;SDS011;13176;51.140;6.290;2022-10-16T10:56:17;11.77;;;11.07;;
25231;SDS011;13176;51.140;6.290;2022-10-16T11:01:48;6.97;;;6.38;;
25231;SDS011;13176;51.140;6.290;2022-10-16T11:04:29;10.60;;;10.02;;
25231;SDS011;13176;51.140;6.290;2022-10-16T11:07:02;8.73;;;8.27;;
25231;SDS011;13176;51.140;6.290;2022-10-16T11:09:33;12.57;;;11.73;;
25231;SDS011;13176;51.140;6.290;2022-10-16T11:14:56;10.80;;;10.30;;
25231;SDS011;13176;51.140;6.290;2022-10-16T11:17:41;11.57;;;10.88;;
25231;SDS011;13176;51.140;6.290;2022-10-16T11:20:21;8.75;;;8.25;;
25231;SDS011;13176;51.140;6.290;2022-10-16T11:23:00;6.57;;;6.18;;
25231;SDS011;13176;51.140;6.290;2022-10-16T11:25:35;7.45;;;7.00;;
25231;SDS011;13176;51.140;6.290;2022-10-16T11:28:02;11.15;;;10.45;;
25231;SDS011;13176;51.140;6.290;2022-10-16T11:30:56;13.82;;;12.98;;
25231;SDS011;13176;51.140;6.290;2022-10-16T11:33:28;11.55;;;10.85;;
25231;SDS011;13176;51.140;6.290;2022-10-16T11:38:59;19.55;;;18.45;;
25231;SDS011;13176;51.140;6.290;2022-10-16T11:41:29;8.55;;;8.00;;
25231;SDS011;13176;51.140;6.290;2022-10-16T11:44:06;9.00;;;8.43;;
25231;SDS011;13176;51.140;6.290;2022-10-16T11:46:38;7.55;;;7.05;;
25231;SDS011;13176;51.140;6.290;2022-10-16T11:49:30;7.25;;;6.85;;
25231;SDS011;13176;51.140;6.290;2022-10-16T11:57:29;10.40;;;9.80;;
25231;SDS011;13176;51.140;6.290;2022-10-16T12:00:02;8.32;;;7.82;;
25231;SDS011;13176;51.140;6.290;2022-10-16T12:02:39;6.22;;;5.82;;
25231;SDS011;13176;51.140;6.290;2022-10-16T12:10:36;6.35;;;5.82;;
25231;SDS011;13176;51.140;6.290;2022-10-16T12:16:04;11.70;;;11.00;;
25231;SDS011;13176;51.140;6.290;2022-10-16T12:18:46;10.10;;;9.30;;
25231;SDS011;13176;51.140;6.290;2022-10-16T12:21:15;13.43;;;12.63;;
25231;SDS011;13176;51.140;6.290;2022-10-16T12:23:51;13.77;;;12.98;;
25231;SDS011;13176;51.140;6.290;2022-10-16T12:26:27;14.63;;;13.82;;
25231;SDS011;13176;51.140;6.290;2022-10-16T12:28:57;14.40;;;13.60;;
25231;SDS011;13176;51.140;6.290;2022-10-16T12:31:44;8.88;;;8.38;;
25231;SDS011;13176;51.140;6.290;2022-10-16T12:37:11;12.18;;;11.48;;
25231;SDS011;13176;51.140;6.290;2022-10-16T12:39:41;12.82;;;12.13;;
25231;SDS011;13176;51.140;6.290;2022-10-16T12:42:22;10.90;;;10.30;;
25231;SDS011;13176;51.140;6.290;2022-10-16T12:44:57;8.00;;;7.55;;
25231;SDS011;13176;51.140;6.290;2022-10-16T12:47:35;17.90;;;16.95;;
25231;SDS011;13176;51.140;6.290;2022-10-16T12:50:05;17.70;;;16.63;;
25231;SDS011;13176;51.140;6.290;2022-10-16T12:52:50;18.00;;;16.92;;
25231;SDS011;13176;51.140;6.290;2022-10-16T12:55:17;13.88;;;12.98;;
25231;SDS011;13176;51.140;6.290;2022-10-16T13:10:36;10.45;;;9.85;;
25231;SDS011;13176;51.140;6.290;2022-10-16T13:18:47;6.32;;;6.03;;
25231;SDS011;13176;51.140;6.290;2022-10-16T13:30:11;7.60;;;7.00;;
25231;SDS011;13176;51.140;6.290;2022-10-16T13:32:44;13.50;;;12.60;;
25231;SDS011;13176;51.140;6.290;2022-10-16T13:35:21;13.75;;;13.02;;
25231;SDS011;13176;51.140;6.290;2022-10-16T13:37:49;11.70;;;10.90;;
25231;SDS011;13176;51.140;6.290;2022-10-16T13:42:48;16.23;;;15.35;;
25231;SDS011;13176;51.140;6.290;2022-10-16T13:45:23;16.75;;;15.90;;
25231;SDS011;13176;51.140;6.290;2022-10-16T13:48:01;14.52;;;13.77;;
25231;SDS011;13176;51.140;6.290;2022-10-16T13:50:28;19.30;;;18.20;;
25231;SDS011;13176;51.140;6.290;2022-10-16T13:53:05;15.32;;;14.27;;
25231;SDS011;13176;51.140;6.290;2022-10-16T13:55:32;13.30;;;12.50;;
25231;SDS011;13176;51.140;6.290;2022-10-16T13:58:07;10.18;;;9.65;;
25231;SDS011;13176;51.140;6.290;2022-10-16T14:00:34;16.20;;;15.30;;
25231;SDS011;13176;51.140;6.290;2022-10-16T14:03:02;14.30;;;13.50;;
25231;SDS011;13176;51.140;6.290;2022-10-16T14:05:31;17.63;;;16.73;;
25231;SDS011;13176;51.140;6.290;2022-10-16T14:07:58;18.70;;;17.70;;
25231;SDS011;13176;51.140;6.290;2022-10-16T14:10:26;15.60;;;14.80;;
25231;SDS011;13176;51.140;6.290;2022-10-16T14:13:03;16.20;;;15.40;;
25231;SDS011;13176;51.140;6.290;2022-10-16T14:15:33;18.88;;;17.88;;
25231;SDS011;13176;51.140;6.290;2022-10-16T14:18:01;13.43;;;12.75;;
25231;SDS011;13176;51.140;6.290;2022-10-16T14:20:29;11.85;;;11.20;;
25231;SDS011;13176;51.140;6.290;2022-10-16T14:23:04;15.60;;;14.80;;
25231;SDS011;13176;51.140;6.290;2022-10-16T14:25:46;12.45;;;11.75;;
25231;SDS011;13176;51.140;6.290;2022-10-16T14:30:48;19.92;;;18.92;;
25231;SDS011;13176;51.140;6.290;2022-10-16T14:33:40;15.85;;;14.98;;
25231;SDS011;13176;51.140;6.290;2022-10-16T14:36:11;11.95;;;11.25;;
25231;SDS011;13176;51.140;6.290;2022-10-16T14:38:41;10.88;;;10.25;;
25231;SDS011;13176;51.140;6.290;2022-10-16T14:41:09;15.43;;;14.63;;
25231;SDS011;13176;51.140;6.290;2022-10-16T14:43:42;15.63;;;14.82;;
25231;SDS011;13176;51.140;6.290;2022-10-16T14:46:16;13.48;;;12.77;;
25231;SDS011;13176;51.140;6.290;2022-10-16T14:48:50;10.50;;;9.80;;
25231;SDS011;13176;51.140;6.290;2022-10-16T14:51:17;10.60;;;10.00;;
25231;SDS011;13176;51.140;6.290;2022-10-16T14:53:45;10.57;;;9.98;;
25231;SDS011;13176;51.140;6.290;2022-10-16T14:56:17;14.90;;;14.00;;
25231;SDS011;13176;51.140;6.290;2022-10-16T14:58:46;16.80;;;15.93;;
25231;SDS011;13176;51.140;6.290;2022-10-16T15:01:13;21.52;;;20.33;;
25231;SDS011;13176;51.140;6.290;2022-10-16T15:03:39;23.15;;;21.85;;
25231;SDS011;13176;51.140;6.290;2022-10-16T15:06:12;25.90;;;24.55;;
25231;SDS011;13176;51.140;6.290;2022-10-16T15:08:40;32.05;;;30.33;;
25231;SDS011;13176;51.140;6.290;2022-10-16T15:11:10;29.10;;;27.55;;
25231;SDS011;13176;51.140;6.290;2022-10-16T15:13:39;31.48;;;29.75;;
25231;SDS011;13176;51.140;6.290;2022-10-16T15:16:13;32.17;;;30.42;;
25231;SDS011;13176;51.140;6.290;2022-10-16T15:18:41;31.48;;;29.77;;
25231;SDS011;13176;51.140;6.290;2022-10-16T15:21:08;30.75;;;28.95;;
25231;SDS011;13176;51.140;6.290;2022-10-16T15:23:46;29.45;;;27.90;;
25231;SDS011;13176;51.140;6.290;2022-10-16T15:26:15;25.35;;;23.98;;
25231;SDS011;13176;51.140;6.290;2022-10-16T15:28:41;22.90;;;21.50;;
25231;SDS011;13176;51.140;6.290;2022-10-16T15:31:08;28.35;;;26.67;;
25231;SDS011;13176;51.140;6.290;2022-10-16T15:33:34;25.65;;;24.35;;
25231;SDS011;13176;51.140;6.290;2022-10-16T15:36:05;27.35;;;25.77;;
25231;SDS011;13176;51.140;6.290;2022-10-16T15:38:32;25.85;;;24.45;;
25231;SDS011;13176;51.140;6.290;2022-10-16T15:40:58;26.80;;;25.15;;
25231;SDS011;13176;51.140;6.290;2022-10-16T15:43:25;26.00;;;24.63;;
25231;SDS011;13176;51.140;6.290;2022-10-16T15:46:10;26.73;;;24.83;;
25231;SDS011;13176;51.140;6.290;2022-10-16T15:48:43;27.30;;;25.60;;
25231;SDS011;13176;51.140;6.290;2022-10-16T15:51:10;26.63;;;25.02;;
25231;SDS011;13176;51.140;6.290;2022-10-16T15:53:36;27.30;;;25.73;;
25231;SDS011;13176;51.140;6.290;2022-10-16T15:56:03;27.90;;;26.13;;
25231;SDS011;13176;51.140;6.290;2022-10-16T15:58:33;29.17;;;27.58;;
25231;SDS011;13176;51.140;6.290;2022-10-16T16:01:00;29.58;;;27.70;;
25231;SDS011;13176;51.140;6.290;2022-10-16T16:03:28;27.08;;;25.58;;
25231;SDS011;13176;51.140;6.290;2022-10-16T16:05:55;26.40;;;24.90;;
25231;SDS011;13176;51.140;6.290;2022-10-16T16:08:22;26.88;;;25.23;;
25231;SDS011;13176;51.140;6.290;2022-10-16T16:10:58;28.70;;;27.08;;
25231;SDS011;13176;51.140;6.290;2022-10-16T16:13:25;26.40;;;24.95;;
25231;SDS011;13176;51.140;6.290;2022-10-16T16:15:52;27.30;;;25.75;;
25231;SDS011;13176;51.140;6.290;2022-10-16T16:18:19;28.85;;;27.25;;
25231;SDS011;13176;51.140;6.290;2022-10-16T16:20:45;27.85;;;26.33;;
25231;SDS011;13176;51.140;6.290;2022-10-16T16:23:12;28.20;;;26.70;;
25231;SDS011;13176;51.140;6.290;2022-10-16T16:25:38;34.38;;;32.58;;
25231;SDS011;13176;51.140;6.290;2022-10-16T16:28:04;33.53;;;30.92;;
25231;SDS011;13176;51.140;6.290;2022-10-16T16:30:32;33.50;;;31.58;;